Time;durP1;ratioP1;P1;durP2;ratioP2;P2;SDS_P1;SDS_P2;PMS_P1;PMS_P2;Temp;Humidity;BMP_temperature;BMP_pressure;BME280_temperature;BME280_humidity;BME280_pressure;Samples;Min_cycle;Max_cycle;Signal;HPM_P1;HPM_P2
2022/04/18 00:00:54;;;;;;;11.73;5.93;;;8.10;99.90;;;;;;5017540;28;20207;-47
2022/04/18 00:03:21;;;;;;;8.43;5.30;;;8.00;99.90;;;;;;5003071;28;20238;-46
2022/04/18 00:05:48;;;;;;;7.40;4.30;;;8.00;99.90;;;;;;5000421;28;20234;-46
2022/04/18 00:08:14;;;;;;;9.17;5.10;;;8.10;99.90;;;;;;5002662;28;21096;-46
2022/04/18 00:10:44;;;;;;;8.53;4.77;;;8.10;99.90;;;;;;5019301;28;20232;-45
2022/04/18 00:13:11;;;;;;;9.10;5.23;;;8.10;99.90;;;;;;5005943;28;20272;-47
2022/04/18 00:15:37;;;;;;;7.83;4.90;;;8.10;99.90;;;;;;5018778;28;20228;-47
2022/04/18 00:18:06;;;;;;;8.57;5.30;;;8.10;99.90;;;;;;5014016;28;20257;-47
2022/04/18 00:20:33;;;;;;;8.37;5.10;;;8.10;99.90;;;;;;4998250;28;20207;-46
2022/04/18 00:23:00;;;;;;;8.00;5.00;;;8.10;99.90;;;;;;5009844;28;20290;-47
2022/04/18 00:25:27;;;;;;;7.87;5.13;;;8.10;99.90;;;;;;5014871;28;20366;-46
2022/04/18 00:27:54;;;;;;;12.33;5.77;;;8.10;99.90;;;;;;5012967;28;20449;-46
2022/04/18 00:30:21;;;;;;;9.03;5.27;;;8.20;99.90;;;;;;5006336;28;20306;-46
2022/04/18 00:32:47;;;;;;;11.27;5.13;;;8.10;99.90;;;;;;5015762;28;20485;-46
2022/04/18 00:35:16;;;;;;;8.83;5.87;;;8.10;99.90;;;;;;5007245;28;20435;-46
2022/04/18 00:37:43;;;;;;;7.73;5.13;;;8.10;99.90;;;;;;4999005;28;20607;-46
2022/04/18 00:40:11;;;;;;;9.43;5.57;;;8.00;99.90;;;;;;5007426;28;20216;-47
2022/04/18 00:42:42;;;;;;;8.07;5.27;;;8.00;99.90;;;;;;5021766;28;20460;-46
2022/04/18 00:45:09;;;;;;;8.67;5.70;;;8.00;99.90;;;;;;5005974;28;20216;-46
2022/04/18 00:47:36;;;;;;;9.17;5.30;;;8.00;99.90;;;;;;5015664;28;20549;-47
2022/04/18 00:50:03;;;;;;;10.70;5.27;;;8.00;99.90;;;;;;5011049;28;20456;-49
2022/04/18 00:52:33;;;;;;;8.90;5.10;;;8.00;99.90;;;;;;4996407;28;20313;-45
2022/04/18 00:55:02;;;;;;;10.20;6.00;;;8.00;99.90;;;;;;5004930;28;20210;-48
2022/04/18 00:57:29;;;;;;;7.30;5.17;;;7.90;99.90;;;;;;5018794;28;20658;-47
2022/04/18 00:59:56;;;;;;;11.67;4.80;;;8.00;99.90;;;;;;5006080;28;20217;-48
2022/04/18 01:02:23;;;;;;;9.83;5.30;;;7.90;99.90;;;;;;5004083;28;20211;-46
2022/04/18 01:04:51;;;;;;;7.87;5.37;;;7.90;99.90;;;;;;5017299;28;20461;-45
2022/04/18 01:07:18;;;;;;;7.80;5.33;;;7.80;99.90;;;;;;4989384;28;20370;-50
2022/04/18 01:09:46;;;;;;;7.37;4.90;;;7.80;99.90;;;;;;5013140;28;20273;-47
2022/04/18 01:12:13;;;;;;;8.33;5.17;;;7.80;99.90;;;;;;4999818;28;20210;-46
2022/04/18 01:14:47;;;;;;;7.77;4.90;;;7.80;99.90;;;;;;5007670;28;20286;-46
2022/04/18 01:17:14;;;;;;;7.77;4.40;;;7.80;99.90;;;;;;5012317;28;20245;-46
2022/04/18 01:19:41;;;;;;;10.13;4.87;;;7.70;99.90;;;;;;5016723;28;20985;-46
2022/04/18 01:22:10;;;;;;;9.67;4.83;;;7.70;99.90;;;;;;4991550;28;20397;-46
2022/04/18 01:30:08;;;;;;;7.77;4.77;;;7.70;99.90;;;;;;5001503;28;20251;-46
2022/04/18 01:32:35;;;;;;;9.93;5.40;;;7.70;99.90;;;;;;5020635;28;20206;-47
2022/04/18 01:35:01;;;;;;;11.23;4.70;;;7.80;99.90;;;;;;5012940;28;20237;-46
2022/04/18 01:37:30;;;;;;;7.33;4.53;;;7.70;99.90;;;;;;5010639;28;20563;-46
2022/04/18 01:39:57;;;;;;;8.60;4.27;;;7.80;99.90;;;;;;4999304;28;20225;-46
2022/04/18 01:42:24;;;;;;;8.83;4.50;;;7.70;99.90;;;;;;4999877;28;20410;-46
2022/04/18 01:44:52;;;;;;;7.57;4.77;;;7.70;99.90;;;;;;5017106;28;20487;-47
2022/04/18 01:47:19;;;;;;;6.17;4.70;;;7.80;99.90;;;;;;5001889;28;20607;-47
2022/04/18 01:49:46;;;;;;;6.97;4.63;;;7.70;99.90;;;;;;5015054;28;20245;-46
2022/04/18 01:52:15;;;;;;;7.50;4.33;;;7.70;99.90;;;;;;5013535;28;20240;-46
2022/04/18 01:54:43;;;;;;;9.77;4.60;;;7.60;99.90;;;;;;4999318;28;20625;-46
2022/04/18 01:57:10;;;;;;;6.97;4.40;;;7.60;99.90;;;;;;5001052;28;20241;-46
2022/04/18 01:59:37;;;;;;;10.43;4.40;;;7.60;99.90;;;;;;5015862;28;20206;-47
2022/04/18 02:02:04;;;;;;;6.93;4.40;;;7.50;99.90;;;;;;4999478;28;20471;-47
2022/04/18 02:04:30;;;;;;;6.30;4.40;;;7.50;99.90;;;;;;5021860;28;20564;-47
2022/04/18 02:06:57;;;;;;;6.97;4.30;;;7.40;99.90;;;;;;5022576;28;20222;-46
2022/04/18 02:09:24;;;;;;;6.17;4.70;;;7.50;99.90;;;;;;5001842;28;20282;-47
2022/04/18 02:11:52;;;;;;;7.73;4.83;;;7.40;99.90;;;;;;5017174;28;20371;-47
2022/04/18 02:14:19;;;;;;;6.10;4.10;;;7.40;99.90;;;;;;4997930;28;20210;-46
2022/04/18 02:16:46;;;;;;;7.30;4.57;;;7.40;99.90;;;;;;5009500;28;20239;-48
2022/04/18 02:19:13;;;;;;;7.90;4.07;;;7.40;99.90;;;;;;5013512;28;20431;-45
2022/04/18 02:21:40;;;;;;;5.87;4.40;;;7.40;99.90;;;;;;5022438;28;20233;-46
2022/04/18 02:24:07;;;;;;;8.87;4.60;;;7.30;99.90;;;;;;4999621;28;20666;-45
2022/04/18 02:26:34;;;;;;;13.60;4.77;;;7.30;99.90;;;;;;5021183;28;20233;-46
2022/04/18 02:29:02;;;;;;;5.70;4.00;;;7.20;99.90;;;;;;5004913;28;20305;-45
2022/04/18 02:31:29;;;;;;;6.47;4.17;;;7.10;99.90;;;;;;5017115;28;20206;-46
2022/04/18 02:33:56;;;;;;;9.03;4.40;;;7.00;99.90;;;;;;5004772;28;20316;-46
2022/04/18 02:36:23;;;;;;;7.30;4.60;;;6.90;99.90;;;;;;5018182;28;20237;-45
2022/04/18 02:38:50;;;;;;;23.77;4.93;;;6.90;99.90;;;;;;5022415;28;20253;-46
2022/04/18 02:41:16;;;;;;;5.37;3.97;;;7.00;99.90;;;;;;5000907;28;20504;-45
2022/04/18 02:43:43;;;;;;;7.80;4.70;;;7.00;99.90;;;;;;5019016;28;20429;-47
2022/04/18 02:46:12;;;;;;;7.87;4.47;;;7.00;99.90;;;;;;5009400;28;20487;-46
2022/04/18 02:48:43;;;;;;;10.70;4.53;;;7.00;99.90;;;;;;4994125;28;20324;-48
2022/04/18 02:51:11;;;;;;;7.17;4.80;;;6.80;99.90;;;;;;5017096;28;20721;-46
2022/04/18 02:53:38;;;;;;;7.83;4.50;;;6.80;99.90;;;;;;5008334;28;20277;-46
2022/04/18 02:59:27;;;;;;;8.10;4.20;;;6.90;99.90;;;;;;5006260;28;20220;-46
2022/04/18 03:01:55;;;;;;;9.07;4.30;;;6.70;99.90;;;;;;5010711;28;20244;-49
2022/04/18 03:04:22;;;;;;;6.90;4.37;;;6.60;99.90;;;;;;5002225;28;20280;-47
2022/04/18 03:06:49;;;;;;;8.47;5.50;;;6.50;99.90;;;;;;5016080;28;20323;-49
2022/04/18 03:09:16;;;;;;;8.27;4.63;;;6.40;99.90;;;;;;5008928;28;20478;-48
2022/04/18 03:11:43;;;;;;;6.60;4.73;;;6.40;99.90;;;;;;4997805;28;20222;-46
2022/04/18 03:14:10;;;;;;;8.00;4.73;;;6.50;99.90;;;;;;5005425;28;20382;-45
2022/04/18 03:16:37;;;;;;;7.20;4.50;;;6.50;99.90;;;;;;5011282;28;20348;-46
2022/04/18 03:19:05;;;;;;;7.80;4.70;;;6.50;99.90;;;;;;5019927;28;20521;-45
2022/04/18 03:21:31;;;;;;;9.93;4.70;;;6.50;99.90;;;;;;5001149;28;20586;-46
2022/04/18 03:23:59;;;;;;;11.60;5.20;;;6.40;99.90;;;;;;5005546;28;20730;-46
2022/04/18 03:26:26;;;;;;;7.43;4.57;;;6.40;99.90;;;;;;5012233;28;21123;-47
2022/04/18 03:28:53;;;;;;;7.53;5.00;;;6.40;99.90;;;;;;5005023;28;20198;-45
2022/04/18 03:31:19;;;;;;;8.53;5.17;;;6.30;99.90;;;;;;5003966;28;20284;-46
2022/04/18 03:33:46;;;;;;;8.27;5.40;;;6.30;99.90;;;;;;5017389;28;20271;-46
2022/04/18 03:41:43;;;;;;;7.37;4.83;;;6.40;99.90;;;;;;5015511;28;20551;-46
2022/04/18 03:44:10;;;;;;;6.60;4.40;;;6.30;99.90;;;;;;5001146;28;20247;-46
2022/04/18 03:46:37;;;;;;;9.40;4.83;;;6.30;99.90;;;;;;5003851;28;20232;-45
2022/04/18 03:49:04;;;;;;;7.03;4.80;;;6.30;99.90;;;;;;5017784;28;20417;-46
2022/04/18 03:51:32;;;;;;;8.77;4.90;;;6.20;99.90;;;;;;5001697;28;20504;-45
2022/04/18 03:53:59;;;;;;;6.47;4.67;;;6.20;99.90;;;;;;5007983;28;21191;-46
2022/04/18 03:56:25;;;;;;;8.30;4.40;;;6.20;99.90;;;;;;5020707;28;20299;-46
2022/04/18 03:58:52;;;;;;;6.23;4.53;;;6.20;99.90;;;;;;4992549;28;20384;-46
2022/04/18 04:01:19;;;;;;;6.83;4.30;;;6.20;99.90;;;;;;4995809;28;20241;-45
2022/04/18 04:03:46;;;;;;;8.60;4.73;;;6.30;99.90;;;;;;5007252;28;20676;-46
2022/04/18 04:06:13;;;;;;;10.10;4.77;;;6.30;99.90;;;;;;5011779;28;20243;-45
2022/04/18 04:08:41;;;;;;;6.63;4.80;;;6.30;99.90;;;;;;4986577;28;20279;-45
2022/04/18 04:11:10;;;;;;;7.97;5.40;;;6.30;99.90;;;;;;5009077;28;20371;-46
2022/04/18 04:13:37;;;;;;;6.43;4.60;;;6.20;99.90;;;;;;4983209;28;20215;-45
2022/04/18 04:16:04;;;;;;;10.43;4.47;;;6.20;99.90;;;;;;5016700;28;20370;-46
2022/04/18 04:18:31;;;;;;;7.37;4.70;;;6.20;99.90;;;;;;4997469;28;20667;-45
2022/04/18 04:20:58;;;;;;;7.07;4.33;;;6.10;99.90;;;;;;5007179;28;20414;-46
2022/04/18 04:23:25;;;;;;;7.90;4.33;;;6.10;99.90;;;;;;4998935;28;20518;-46
2022/04/18 04:25:54;;;;;;;6.77;4.57;;;6.10;99.90;;;;;;4997392;28;20224;-47
2022/04/18 04:28:20;;;;;;;10.43;4.70;;;6.10;99.90;;;;;;5000839;28;20239;-46
2022/04/18 04:30:47;;;;;;;8.17;4.47;;;6.00;99.90;;;;;;4994563;28;20207;-46
2022/04/18 04:33:16;;;;;;;6.83;4.50;;;6.00;99.90;;;;;;5000146;28;20216;-44
2022/04/18 04:35:43;;;;;;;6.93;4.73;;;6.00;99.90;;;;;;5006783;28;20220;-45
2022/04/18 04:38:10;;;;;;;8.87;4.27;;;6.00;99.90;;;;;;5002066;28;20299;-45
2022/04/18 04:40:38;;;;;;;7.00;5.00;;;6.00;99.90;;;;;;4999626;28;20217;-50
2022/04/18 04:43:06;;;;;;;8.47;4.73;;;6.10;99.90;;;;;;5002894;28;20209;-45
2022/04/18 04:45:33;;;;;;;10.00;4.93;;;6.00;99.90;;;;;;4995034;28;20236;-49
2022/04/18 04:48:00;;;;;;;7.53;4.87;;;6.10;99.90;;;;;;5000112;28;20306;-46
2022/04/18 04:50:27;;;;;;;7.50;4.77;;;6.10;99.90;;;;;;5007862;28;20238;-49
2022/04/18 04:52:54;;;;;;;8.07;5.13;;;6.10;99.90;;;;;;5011221;28;20286;-48
2022/04/18 04:55:21;;;;;;;9.50;5.10;;;6.00;99.90;;;;;;4996269;28;20212;-48
2022/04/18 04:57:48;;;;;;;6.30;4.90;;;6.00;99.90;;;;;;4999137;28;20327;-46
2022/04/18 05:00:16;;;;;;;7.33;5.53;;;6.00;99.90;;;;;;4991394;28;20394;-46
2022/04/18 05:02:43;;;;;;;12.00;6.17;;;6.00;99.90;;;;;;4999882;28;20296;-46
2022/04/18 05:05:10;;;;;;;11.00;5.90;;;6.00;99.90;;;;;;5014698;28;20231;-46
2022/04/18 05:07:37;;;;;;;8.57;5.43;;;6.00;99.90;;;;;;5012046;28;20207;-46
2022/04/18 05:10:04;;;;;;;9.17;5.10;;;6.10;99.90;;;;;;5001309;28;20212;-46
2022/04/18 05:12:32;;;;;;;7.00;4.80;;;6.10;99.90;;;;;;5000046;28;20218;-47
2022/04/18 05:15:03;;;;;;;8.60;5.20;;;6.10;99.90;;;;;;4984002;28;20214;-47
2022/04/18 05:17:31;;;;;;;8.57;5.37;;;6.10;99.90;;;;;;5009175;28;20231;-46
2022/04/18 05:19:58;;;;;;;9.90;4.70;;;6.20;99.90;;;;;;4995012;28;20286;-46
2022/04/18 05:22:25;;;;;;;7.27;4.73;;;6.20;99.90;;;;;;5014330;28;20245;-46
2022/04/18 05:24:55;;;;;;;8.03;5.00;;;6.20;99.90;;;;;;4996305;28;20245;-46
2022/04/18 05:27:22;;;;;;;6.87;4.73;;;6.20;99.90;;;;;;5008341;28;20238;-46
2022/04/18 05:29:49;;;;;;;7.20;4.90;;;6.30;99.90;;;;;;5008372;28;20211;-47
2022/04/18 05:32:17;;;;;;;7.40;5.10;;;6.30;99.90;;;;;;4995040;28;20217;-46
2022/04/18 05:34:45;;;;;;;9.03;5.57;;;6.30;99.90;;;;;;4999546;28;20350;-46
2022/04/18 05:37:12;;;;;;;7.93;4.90;;;6.30;99.90;;;;;;5010969;28;20939;-47
2022/04/18 05:39:39;;;;;;;8.27;4.80;;;6.30;99.90;;;;;;4995562;28;20294;-46
2022/04/18 05:42:07;;;;;;;8.53;5.00;;;6.40;99.90;;;;;;5000038;28;20347;-46
2022/04/18 05:44:35;;;;;;;9.13;5.13;;;6.40;99.90;;;;;;5002304;28;20550;-46
2022/04/18 05:47:01;;;;;;;5.63;4.43;;;6.40;99.90;;;;;;4987949;28;20228;-46
2022/04/18 05:49:28;;;;;;;9.23;5.13;;;6.50;99.90;;;;;;5015610;28;20277;-47
2022/04/18 05:51:56;;;;;;;8.83;4.87;;;6.60;99.90;;;;;;4993212;28;20218;-46
2022/04/18 05:54:23;;;;;;;8.93;5.17;;;6.70;99.90;;;;;;5016373;28;20221;-45
2022/04/18 05:56:50;;;;;;;11.07;5.00;;;6.70;99.90;;;;;;4994644;28;20300;-45
2022/04/18 05:59:17;;;;;;;6.77;4.50;;;6.80;99.90;;;;;;4984300;28;20300;-47
2022/04/18 06:01:44;;;;;;;6.70;4.50;;;6.90;99.90;;;;;;4982476;28;20317;-47
2022/04/18 06:04:11;;;;;;;7.37;4.40;;;7.00;99.90;;;;;;5009797;28;20277;-47
2022/04/18 06:06:38;;;;;;;8.53;5.27;;;7.10;99.90;;;;;;4999403;28;20479;-47
2022/04/18 06:09:06;;;;;;;7.77;4.77;;;7.20;99.90;;;;;;5013119;28;20260;-47
2022/04/18 06:11:33;;;;;;;9.73;5.37;;;7.30;99.90;;;;;;4992013;28;20217;-47
2022/04/18 06:14:00;;;;;;;10.37;6.13;;;7.40;99.90;;;;;;4993472;28;20606;-46
2022/04/18 06:16:27;;;;;;;8.87;5.47;;;7.40;99.90;;;;;;4998803;28;20248;-47
2022/04/18 06:18:53;;;;;;;13.10;5.83;;;7.50;99.90;;;;;;4994976;28;20491;-47
2022/04/18 06:21:20;;;;;;;9.13;5.23;;;7.60;99.90;;;;;;5003753;28;20373;-46
2022/04/18 06:23:47;;;;;;;9.27;5.27;;;7.70;99.90;;;;;;5000449;28;20832;-46
2022/04/18 06:26:15;;;;;;;10.87;5.40;;;7.80;99.90;;;;;;4998160;28;20268;-47
2022/04/18 06:28:42;;;;;;;9.43;5.30;;;7.90;99.90;;;;;;4995955;28;20281;-46
2022/04/18 06:31:09;;;;;;;11.97;5.67;;;8.00;99.90;;;;;;5007249;28;20297;-47
2022/04/18 06:33:36;;;;;;;11.77;6.47;;;8.10;99.90;;;;;;4989885;28;20426;-47
2022/04/18 06:36:03;;;;;;;8.10;5.30;;;8.20;99.90;;;;;;4991188;28;20234;-47
2022/04/18 06:38:30;;;;;;;9.43;5.60;;;8.20;99.90;;;;;;5011930;28;20222;-46
2022/04/18 06:40:58;;;;;;;8.03;5.27;;;8.30;99.90;;;;;;5014786;28;20226;-46
2022/04/18 06:43:26;;;;;;;10.53;6.07;;;8.40;99.90;;;;;;4986156;28;20277;-46
2022/04/18 06:45:53;;;;;;;8.13;5.33;;;8.40;99.90;;;;;;4996426;28;20885;-47
2022/04/18 06:48:20;;;;;;;8.80;5.50;;;8.50;99.90;;;;;;4993929;28;20718;-47
2022/04/18 06:50:47;;;;;;;9.20;5.90;;;8.60;99.90;;;;;;5005370;28;20567;-48
2022/04/18 06:53:14;;;;;;;9.27;5.27;;;8.70;99.90;;;;;;4998315;28;20226;-48
2022/04/18 06:58:26;;;;;;;7.97;5.50;;;8.80;99.90;;;;;;4983026;28;20411;-48
2022/04/18 07:00:53;;;;;;;7.83;5.27;;;8.90;99.90;;;;;;5019191;28;20285;-45
2022/04/18 07:03:20;;;;;;;7.17;4.63;;;8.90;99.90;;;;;;4995091;28;20471;-49
2022/04/18 07:05:49;;;;;;;7.43;4.73;;;9.00;99.90;;;;;;5013874;28;20493;-47
2022/04/18 07:08:16;;;;;;;10.30;5.83;;;9.00;99.90;;;;;;5009068;28;20233;-49
2022/04/18 07:10:43;;;;;;;9.20;5.20;;;9.10;99.90;;;;;;5015165;28;20430;-45
2022/04/18 07:13:10;;;;;;;9.50;5.13;;;9.30;99.90;;;;;;5023803;28;20241;-46
2022/04/18 07:15:38;;;;;;;7.87;4.93;;;9.30;99.90;;;;;;4995524;28;20464;-45
2022/04/18 07:18:05;;;;;;;7.50;5.03;;;9.40;99.90;;;;;;5013681;28;20285;-46
2022/04/18 07:20:32;;;;;;;6.93;4.53;;;9.50;99.90;;;;;;5001277;28;20246;-49
2022/04/18 07:22:59;;;;;;;7.90;4.63;;;9.60;99.90;;;;;;4993289;28;20324;-47
2022/04/18 07:25:26;;;;;;;8.17;4.80;;;9.60;99.90;;;;;;5000681;28;20229;-50
2022/04/18 07:27:53;;;;;;;8.73;4.70;;;9.70;99.90;;;;;;5016248;28;20214;-46
2022/04/18 07:30:20;;;;;;;8.20;4.93;;;9.80;99.90;;;;;;4998030;28;20218;-49
2022/04/18 07:32:48;;;;;;;10.03;5.03;;;9.90;99.90;;;;;;5001890;28;20268;-46
2022/04/18 07:35:15;;;;;;;10.10;4.97;;;10.00;99.90;;;;;;4994166;28;20214;-49
2022/04/18 07:38:48;;;;;;;7.50;4.83;;;10.00;99.90;;;;;;4999702;28;21616;-49
2022/04/18 07:40:30;;;;;;;7.00;4.77;;;10.10;99.90;;;;;;5003246;28;20203;-50
2022/04/18 07:42:56;;;;;;;9.73;4.73;;;10.20;99.90;;;;;;5010504;28;21308;-49
2022/04/18 07:45:24;;;;;;;7.50;4.60;;;10.50;99.90;;;;;;4997299;28;20262;-49
2022/04/18 07:47:53;;;;;;;6.60;4.25;;;10.50;99.90;;;;;;5008317;28;20465;-50
2022/04/18 07:51:31;;;;;;;10.47;5.13;;;10.60;99.90;;;;;;5001357;28;20541;-46
2022/04/18 07:53:07;;;;;;;6.93;4.07;;;10.60;99.90;;;;;;5006330;28;20209;-48
2022/04/18 07:55:34;;;;;;;8.07;4.85;;;10.70;99.90;;;;;;5021163;28;20309;-49
2022/04/18 07:58:01;;;;;;;7.07;4.13;;;10.70;99.90;;;;;;5013706;28;20693;-49
2022/04/18 08:00:28;;;;;;;6.13;3.60;;;10.80;99.90;;;;;;5021483;28;20302;-47
2022/04/18 08:02:56;;;;;;;5.88;3.60;;;10.80;99.90;;;;;;5004331;28;20241;-47
2022/04/18 08:05:23;;;;;;;5.68;3.90;;;10.90;99.90;;;;;;5020123;28;20238;-43
2022/04/18 08:07:50;;;;;;;6.25;3.85;;;11.00;99.90;;;;;;4997833;28;20248;-48
2022/04/18 08:10:17;;;;;;;8.73;4.80;;;11.00;99.90;;;;;;4991322;28;20278;-48
2022/04/18 08:12:44;;;;;;;7.65;4.25;;;11.10;99.90;;;;;;5003669;28;20212;-46
2022/04/18 08:15:11;;;;;;;6.03;4.10;;;11.20;99.90;;;;;;5000719;28;20204;-46
2022/04/18 08:17:38;;;;;;;5.45;3.80;;;11.20;99.90;;;;;;5001158;28;20695;-48
2022/04/18 08:20:07;;;;;;;7.15;3.80;;;11.30;99.90;;;;;;5018782;28;20455;-45
2022/04/18 08:22:34;;;;;;;6.82;4.05;;;11.40;99.90;;;;;;4994614;28;20290;-49
2022/04/18 08:25:01;;;;;;;5.15;3.40;;;11.50;99.90;;;;;;5003945;28;21389;-45
2022/04/18 08:27:28;;;;;;;6.35;3.47;;;11.50;99.90;;;;;;5016007;28;20333;-47
2022/04/18 08:29:55;;;;;;;5.80;3.40;;;11.60;99.90;;;;;;4998248;28;20305;-46
2022/04/18 08:32:22;;;;;;;5.80;3.92;;;11.70;99.90;;;;;;5008456;28;20464;-45
2022/04/18 08:34:48;;;;;;;10.43;4.00;;;11.80;99.90;;;;;;4983706;28;20701;-45
2022/04/18 08:37:17;;;;;;;5.43;3.13;;;11.90;99.90;;;;;;5009262;28;20217;-46
2022/04/18 08:39:44;;;;;;;8.15;3.95;;;12.00;99.90;;;;;;4979416;28;20232;-47
2022/04/18 08:42:13;;;;;;;6.30;3.58;;;12.10;99.90;;;;;;5006898;28;20622;-47
2022/04/18 08:44:42;;;;;;;4.90;3.55;;;12.20;99.90;;;;;;4997143;28;20198;-47
2022/04/18 08:52:43;;;;;;;5.32;3.78;;;12.30;99.90;;;;;;4998519;28;20591;-47
2022/04/18 08:52:45;;;;;;;6.45;3.38;;;12.40;99.90;;;;;;4994803;28;20550;-46
2022/04/18 08:55:12;;;;;;;6.72;3.60;;;12.40;99.90;;;;;;4988097;28;20236;-46
2022/04/18 08:57:39;;;;;;;4.55;3.53;;;12.40;99.90;;;;;;4996846;28;20281;-46
2022/04/18 09:00:07;;;;;;;5.22;3.45;;;12.40;99.90;;;;;;5005554;28;20229;-47
2022/04/18 09:02:34;;;;;;;4.18;3.20;;;12.50;99.90;;;;;;5014966;28;20404;-47
2022/04/18 09:05:01;;;;;;;6.95;3.97;;;12.60;99.90;;;;;;4976826;28;21158;-48
2022/04/18 09:07:28;;;;;;;5.78;3.63;;;12.60;99.90;;;;;;5006453;28;20229;-47
2022/04/18 09:09:58;;;;;;;4.22;2.83;;;12.70;99.90;;;;;;4993472;28;20402;-47
2022/04/18 09:12:27;;;;;;;4.88;3.10;;;12.80;99.90;;;;;;4998052;28;20234;-47
2022/04/18 09:14:54;;;;;;;5.05;2.70;;;12.90;99.90;;;;;;5002535;28;20214;-46
2022/04/18 09:17:30;;;;;;;5.40;3.15;;;13.00;99.90;;;;;;5008633;28;20241;-47
2022/04/18 09:20:08;;;;;;;3.97;2.72;;;13.00;99.90;;;;;;4999788;28;20255;-47
2022/04/18 09:22:42;;;;;;;5.03;3.03;;;13.10;99.90;;;;;;4999429;28;20392;-47
2022/04/18 09:25:21;;;;;;;4.45;2.45;;;13.20;99.90;;;;;;4994479;28;20524;-47
2022/04/18 09:27:54;;;;;;;4.25;2.78;;;13.40;99.90;;;;;;5001565;28;20529;-47
2022/04/18 09:30:21;;;;;;;4.38;2.95;;;13.50;99.90;;;;;;5009345;28;20226;-47
2022/04/18 09:32:57;;;;;;;3.63;2.58;;;13.50;99.90;;;;;;5007873;28;20224;-49
2022/04/18 09:35:26;;;;;;;5.55;2.80;;;13.50;99.90;;;;;;4980908;28;20640;-47
2022/04/18 09:37:54;;;;;;;4.78;2.70;;;13.50;99.90;;;;;;5000345;28;20217;-47
2022/04/18 09:40:24;;;;;;;4.45;3.10;;;13.50;99.90;;;;;;4991385;28;20217;-48
2022/04/18 09:42:53;;;;;;;6.05;2.90;;;13.60;99.90;;;;;;5013626;28;20236;-48
2022/04/18 09:45:20;;;;;;;3.72;2.58;;;13.70;99.90;;;;;;4991428;28;20738;-47
2022/04/18 09:47:55;;;;;;;4.25;2.60;;;13.70;99.90;;;;;;5016706;28;20248;-47
2022/04/18 09:53:08;;;;;;;3.65;2.70;;;13.90;99.90;;;;;;4987667;28;20236;-48
2022/04/18 09:55:36;;;;;;;5.15;2.70;;;14.00;99.90;;;;;;4993766;28;20222;-48
2022/04/18 09:58:04;;;;;;;4.85;2.55;;;14.10;99.90;;;;;;5002387;28;20201;-47
2022/04/18 10:00:31;;;;;;;6.10;2.75;;;14.20;99.90;;;;;;5003845;28;20245;-47
2022/04/18 10:02:59;;;;;;;4.70;2.40;;;14.10;99.90;;;;;;5015391;28;20212;-48
2022/04/18 10:05:27;;;;;;;4.47;2.65;;;14.20;99.90;;;;;;5010477;28;20232;-48
2022/04/18 10:07:56;;;;;;;3.15;2.08;;;14.20;99.90;;;;;;5004489;28;20611;-48
2022/04/18 10:10:24;;;;;;;2.65;2.15;;;14.20;99.90;;;;;;5007393;28;20190;-47
2022/04/18 10:12:52;;;;;;;3.08;2.33;;;14.10;99.90;;;;;;4994758;28;21039;-48
2022/04/18 10:15:20;;;;;;;4.65;2.58;;;14.10;99.90;;;;;;5007069;28;20681;-48
2022/04/18 10:17:47;;;;;;;2.85;2.05;;;14.20;99.90;;;;;;5017866;28;20206;-49
2022/04/18 10:20:35;;;;;;;3.67;2.70;;;14.40;99.90;;;;;;5021508;28;20300;-48
2022/04/18 10:23:43;;;;;;;7.63;2.83;;;14.30;99.90;;;;;;5005076;28;20199;-48
2022/04/18 10:26:53;;;;;;;4.75;2.50;;;14.40;99.90;;;;;;5000066;28;20230;-48
2022/04/18 10:29:25;;;;;;;2.58;2.38;;;14.40;99.90;;;;;;4959947;28;20206;-48
2022/04/18 10:31:54;;;;;;;4.15;2.70;;;14.30;99.90;;;;;;5009722;28;20230;-49
2022/04/18 10:34:23;;;;;;;3.70;2.40;;;14.30;99.90;;;;;;4999800;28;20273;-48
2022/04/18 10:36:53;;;;;;;3.70;2.47;;;14.20;99.90;;;;;;5013573;28;20226;-48
2022/04/18 10:39:20;;;;;;;3.40;2.30;;;14.20;99.90;;;;;;4990745;28;20305;-47
2022/04/18 10:41:48;;;;;;;3.00;2.28;;;14.30;99.90;;;;;;4997560;28;20218;-48
2022/04/18 10:44:15;;;;;;;4.32;2.47;;;14.30;99.90;;;;;;5009294;28;20308;-47
2022/04/18 10:47:03;;;;;;;3.22;2.42;;;14.30;99.90;;;;;;4997492;28;20508;-48
2022/04/18 10:49:31;;;;;;;3.70;2.20;;;14.30;99.90;;;;;;5007122;28;20275;-48
2022/04/18 10:52:05;;;;;;;3.30;2.50;;;14.30;99.90;;;;;;5002421;28;20222;-48
2022/04/18 10:54:32;;;;;;;3.08;2.47;;;14.30;99.90;;;;;;4993419;28;20213;-48
2022/04/18 10:57:01;;;;;;;3.53;2.30;;;14.30;99.90;;;;;;5018395;28;20226;-48
2022/04/18 10:59:29;;;;;;;3.10;2.40;;;14.40;99.90;;;;;;4981645;28;20698;-48
2022/04/18 11:01:59;;;;;;;3.85;2.60;;;14.40;99.90;;;;;;5003461;28;20667;-48
2022/04/18 11:04:27;;;;;;;2.85;2.22;;;14.60;99.90;;;;;;5002401;28;20202;-48
2022/04/18 11:07:02;;;;;;;3.85;2.40;;;14.60;99.90;;;;;;5003150;28;20552;-48
2022/04/18 11:09:32;;;;;;;2.85;2.38;;;14.60;99.90;;;;;;4999588;28;20918;-48
2022/04/18 11:12:02;;;;;;;3.45;2.53;;;14.50;99.90;;;;;;5020895;28;20241;-48
2022/04/18 11:14:31;;;;;;;3.35;2.17;;;14.60;99.90;;;;;;5000571;28;20662;-48
2022/04/18 11:17:03;;;;;;;3.30;2.70;;;14.50;99.90;;;;;;4999905;28;20237;-48
2022/04/18 11:19:31;;;;;;;3.13;2.35;;;14.50;99.90;;;;;;5013033;28;20226;-47
2022/04/18 11:22:17;;;;;;;3.85;2.08;;;14.40;99.90;;;;;;5017264;28;20215;-48
2022/04/18 11:24:55;;;;;;;4.93;2.40;;;14.50;99.90;;;;;;5016650;28;20240;-47
2022/04/18 11:27:24;;;;;;;4.00;2.47;;;14.60;99.90;;;;;;5001629;28;20228;-48
2022/04/18 11:29:53;;;;;;;3.00;2.50;;;14.60;99.90;;;;;;4995632;28;20451;-49
2022/04/18 11:32:24;;;;;;;2.75;2.17;;;14.60;99.90;;;;;;4999604;28;20217;-48
2022/04/18 11:34:53;;;;;;;5.72;3.25;;;14.70;99.90;;;;;;5018752;28;20563;-48
2022/04/18 11:37:23;;;;;;;3.80;2.28;;;14.80;99.90;;;;;;5013071;28;20672;-48
2022/04/18 11:39:51;;;;;;;6.82;2.50;;;14.90;99.90;;;;;;5000779;28;20297;-47
2022/04/18 11:42:19;;;;;;;4.13;2.72;;;15.00;99.90;;;;;;4980062;28;20207;-48
2022/04/18 11:44:48;;;;;;;3.55;2.53;;;15.00;99.90;;;;;;4960215;28;22881;-49
2022/04/18 11:47:20;;;;;;;4.25;2.40;;;14.90;99.90;;;;;;4964656;28;20376;-48
2022/04/18 11:49:50;;;;;;;3.42;2.30;;;14.90;99.90;;;;;;5013119;28;20515;-49
2022/04/18 11:52:22;;;;;;;3.47;2.38;;;14.90;99.90;;;;;;5010442;28;20316;-48
2022/04/18 11:54:59;;;;;;;3.80;2.30;;;14.90;99.90;;;;;;5021350;28;20421;-49
2022/04/18 11:57:27;;;;;;;5.00;2.40;;;14.90;99.90;;;;;;5005986;28;20433;-48
2022/04/18 11:59:55;;;;;;;4.63;2.50;;;14.90;99.90;;;;;;4971235;28;20465;-49
2022/04/18 12:08:00;;;;;;;3.92;2.38;;;15.00;99.90;;;;;;5001614;28;20639;-47
2022/04/18 12:10:28;;;;;;;4.07;2.88;;;15.00;99.90;;;;;;5010245;28;20201;-48
2022/04/18 12:12:56;;;;;;;2.97;2.47;;;15.10;99.90;;;;;;4992789;28;20263;-47
2022/04/18 12:15:24;;;;;;;3.28;2.45;;;15.10;99.90;;;;;;4989646;28;20252;-47
2022/04/18 12:17:52;;;;;;;6.03;2.67;;;15.30;99.90;;;;;;5008526;28;20210;-48
2022/04/18 12:20:26;;;;;;;3.17;2.53;;;15.30;99.90;;;;;;4989772;28;20638;-48
2022/04/18 12:22:54;;;;;;;3.83;2.50;;;15.30;99.90;;;;;;4997581;28;20276;-48
2022/04/18 12:25:22;;;;;;;3.92;2.40;;;15.30;99.90;;;;;;5000728;28;20338;-48
2022/04/18 12:27:49;;;;;;;2.83;1.90;;;15.30;99.90;;;;;;4992666;28;20521;-48
2022/04/18 12:30:17;;;;;;;4.05;2.58;;;15.30;99.90;;;;;;4990241;28;20325;-49
2022/04/18 12:32:47;;;;;;;4.07;2.45;;;15.20;99.90;;;;;;4999719;28;20217;-48
2022/04/18 12:35:15;;;;;;;3.33;2.47;;;15.20;99.90;;;;;;4995514;28;20680;-47
2022/04/18 12:37:48;;;;;;;3.17;2.10;;;15.20;99.90;;;;;;4996341;28;20213;-49
2022/04/18 12:40:16;;;;;;;4.47;3.13;;;15.20;99.90;;;;;;5000349;28;20297;-48
2022/04/18 12:42:50;;;;;;;3.78;2.60;;;15.20;99.90;;;;;;5010858;28;20198;-47
2022/04/18 12:45:17;;;;;;;8.00;2.60;;;15.30;99.90;;;;;;4981293;28;20223;-47
2022/04/18 12:47:44;;;;;;;3.17;2.30;;;15.30;99.90;;;;;;5004101;28;20567;-48
2022/04/18 12:50:14;;;;;;;5.60;2.72;;;15.30;99.90;;;;;;4993804;28;20198;-49
2022/04/18 12:52:51;;;;;;;3.38;2.45;;;15.20;99.90;;;;;;5006240;28;20353;-48
2022/04/18 12:55:26;;;;;;;2.58;2.13;;;15.30;99.90;;;;;;4998233;28;20491;-49
2022/04/18 12:57:54;;;;;;;3.88;2.60;;;15.30;99.90;;;;;;5000636;28;20222;-47
2022/04/18 13:00:21;;;;;;;3.42;2.17;;;15.40;99.90;;;;;;4987595;28;20234;-49
2022/04/18 13:02:59;;;;;;;3.47;2.60;;;15.40;99.90;;;;;;5002192;28;20735;-48
2022/04/18 13:05:27;;;;;;;2.88;2.00;;;15.50;99.90;;;;;;5006134;28;20234;-48
2022/04/18 13:08:00;;;;;;;3.50;2.10;;;15.50;99.90;;;;;;5004007;28;20373;-48
2022/04/18 13:10:29;;;;;;;3.90;2.75;;;15.50;99.90;;;;;;5004675;28;20316;-48
2022/04/18 13:13:04;;;;;;;2.58;2.00;;;15.50;99.90;;;;;;4993686;28;20620;-47
2022/04/18 13:15:31;;;;;;;3.88;2.50;;;15.60;99.90;;;;;;4999360;28;20570;-48
2022/04/18 13:18:01;;;;;;;3.72;2.40;;;15.60;99.90;;;;;;4998659;28;20614;-48
2022/04/18 13:20:29;;;;;;;5.03;2.67;;;15.60;99.90;;;;;;5004571;28;20606;-49
2022/04/18 13:22:57;;;;;;;3.30;2.33;;;15.60;99.90;;;;;;4999838;28;20394;-48
2022/04/18 13:25:25;;;;;;;5.50;2.53;;;15.60;99.90;;;;;;5006887;28;20218;-48